createdAt,value
2023-09-27T00:02:17.630Z,84.54
2023-09-27T00:04:44.963Z,84.46
2023-09-27T00:07:13.599Z,84.37
2023-09-27T00:09:41.457Z,84.40
2023-09-27T00:12:08.745Z,84.37
2023-09-27T00:14:37.517Z,84.30
2023-09-27T00:17:05.216Z,84.12
2023-09-27T00:19:32.448Z,84.20
2023-09-27T00:21:59.947Z,84.06
2023-09-27T00:24:27.120Z,83.88
2023-09-27T00:26:54.317Z,83.96
2023-09-27T00:29:22.569Z,84.05
2023-09-27T00:31:50.632Z,83.85
2023-09-27T00:34:17.967Z,83.72
2023-09-27T00:36:45.684Z,83.61
2023-09-27T00:39:12.953Z,83.68
2023-09-27T00:41:40.146Z,83.42
2023-09-27T00:44:07.733Z,83.48
2023-09-27T00:46:35.121Z,83.33
2023-09-27T00:49:02.423Z,83.38
2023-09-27T00:51:30.236Z,83.41
2023-09-27T00:53:58.254Z,83.31
2023-09-27T00:56:27.081Z,83.22
2023-09-27T00:58:57.083Z,83.22
2023-09-27T01:04:26.385Z,82.98
2023-09-27T01:06:54.170Z,83.03
2023-09-27T01:09:21.319Z,82.90
2023-09-27T01:11:48.788Z,82.76
2023-09-27T01:14:16.176Z,82.53
2023-09-27T01:16:43.627Z,82.58
2023-09-27T01:19:11.073Z,82.53
2023-09-27T01:21:38.386Z,82.47
2023-09-27T01:24:08.018Z,82.23
2023-09-27T01:26:38.278Z,82.16
2023-09-27T01:29:05.943Z,82.16
2023-09-27T01:31:33.808Z,82.00
2023-09-27T01:34:01.143Z,81.93
2023-09-27T01:36:28.368Z,82.00
2023-09-27T01:38:55.579Z,81.86
2023-09-27T01:41:22.815Z,81.80
2023-09-27T01:43:50.070Z,81.88
2023-09-27T01:46:17.532Z,81.65
2023-09-27T01:48:45.029Z,81.53
2023-09-27T01:51:15.202Z,81.60
2023-09-27T01:53:42.428Z,81.59
2023-09-27T01:56:09.723Z,81.62
2023-09-27T01:58:37.060Z,81.52
2023-09-27T02:01:05.177Z,81.27
2023-09-27T02:03:33.044Z,81.24
2023-09-27T02:06:00.592Z,81.31
2023-09-27T02:08:27.848Z,81.24
2023-09-27T02:10:55.095Z,81.16
2023-09-27T02:13:22.283Z,81.20
2023-09-27T02:15:49.768Z,81.14
2023-09-27T02:18:17.636Z,80.97
2023-09-27T02:20:45.180Z,80.88
2023-09-27T02:23:12.376Z,80.97
2023-09-27T02:25:41.018Z,80.93
2023-09-27T02:28:08.188Z,80.99
2023-09-27T02:30:35.526Z,80.93
2023-09-27T02:33:03.597Z,80.95
2023-09-27T02:35:31.055Z,80.78
2023-09-27T02:37:58.280Z,80.82
2023-09-27T02:40:26.178Z,80.70
2023-09-27T02:42:53.341Z,80.76
2023-09-27T02:45:20.786Z,80.56
2023-09-27T02:47:48.861Z,80.76
2023-09-27T02:50:16.938Z,80.62
2023-09-27T02:52:45.438Z,80.55
2023-09-27T02:55:13.780Z,80.46
2023-09-27T02:57:41.324Z,80.50
2023-09-27T03:00:10.340Z,80.45
2023-09-27T03:02:39.013Z,80.36
2023-09-27T03:05:09.407Z,80.37
2023-09-27T03:07:37.141Z,80.29
2023-09-27T03:10:06.187Z,80.35
2023-09-27T03:12:34.093Z,80.20
2023-09-27T03:15:01.338Z,80.17
2023-09-27T03:17:29.031Z,80.13
2023-09-27T03:19:56.330Z,80.31
2023-09-27T03:22:24.018Z,80.20
2023-09-27T03:24:52.586Z,80.14
2023-09-27T03:27:20.297Z,80.15
2023-09-27T03:29:48.163Z,80.00
2023-09-27T03:32:15.809Z,80.19
2023-09-27T03:34:43.043Z,80.01
2023-09-27T03:37:10.179Z,80.06
2023-09-27T03:39:37.848Z,80.11
2023-09-27T03:42:05.304Z,79.87
2023-09-27T03:44:32.943Z,80.03
2023-09-27T03:47:00.522Z,79.81
2023-09-27T03:49:27.756Z,79.95
2023-09-27T03:51:55.240Z,79.95
2023-09-27T03:54:23.675Z,79.94
2023-09-27T03:56:50.878Z,79.99
2023-09-27T03:59:18.229Z,79.89
2023-09-27T04:01:47.552Z,79.83
2023-09-27T04:04:14.864Z,79.89
2023-09-27T04:06:42.286Z,79.81
2023-09-27T04:09:11.258Z,79.69
2023-09-27T04:11:39.114Z,79.67
2023-09-27T04:14:07.415Z,79.70
2023-09-27T04:16:34.857Z,79.64
2023-09-27T04:19:02.218Z,79.83
2023-09-27T04:21:30.738Z,79.84
2023-09-27T04:23:59.100Z,79.89
2023-09-27T04:26:26.930Z,79.75
2023-09-27T04:28:55.044Z,79.72
2023-09-27T04:31:22.586Z,79.75
2023-09-27T04:33:50.120Z,79.66
2023-09-27T04:36:18.683Z,79.56
2023-09-27T04:38:47.128Z,79.73
2023-09-27T04:41:19.632Z,79.88
2023-09-27T04:43:46.884Z,79.49
2023-09-27T04:46:18.362Z,79.75
2023-09-27T04:49:58.209Z,79.72
2023-09-27T04:53:51.125Z,79.84
2023-09-27T04:58:01.183Z,79.89
2023-09-27T05:01:48.732Z,79.72
2023-09-27T05:05:39.622Z,79.71
2023-09-27T05:09:27.624Z,79.94
2023-09-27T05:13:37.859Z,79.86
2023-09-27T05:17:27.741Z,79.78
2023-09-27T05:21:18.077Z,79.71
2023-09-27T05:25:08.991Z,79.92
2023-09-27T05:29:02.617Z,79.98
2023-09-27T05:32:51.057Z,79.85
2023-09-27T05:36:41.753Z,79.87
2023-09-27T05:40:38.340Z,79.98
2023-09-27T05:44:38.331Z,80.15
2023-09-27T05:52:29.159Z,80.21
2023-09-27T05:56:17.332Z,80.43
2023-09-27T06:00:07.760Z,80.57
2023-09-27T06:03:58.715Z,81.01
2023-09-27T06:07:53.703Z,81.42
2023-09-27T06:11:58.649Z,81.61
2023-09-27T06:15:58.494Z,81.35
2023-09-27T06:19:52.108Z,82.01
2023-09-27T06:31:31.560Z,81.69
2023-09-27T06:35:20.660Z,81.72
2023-09-27T06:39:16.668Z,82.06
2023-09-27T06:43:21.094Z,83.10
2023-09-27T06:47:16.896Z,85.02
2023-09-27T06:51:07.181Z,83.13
2023-09-27T06:54:57.942Z,82.98
2023-09-27T06:58:49.779Z,82.07
2023-09-27T07:02:43.421Z,81.25
2023-09-27T07:06:33.719Z,80.99
2023-09-27T07:10:21.808Z,80.33
2023-09-27T07:14:16.237Z,80.64
2023-09-27T07:18:05.844Z,80.46
2023-09-27T07:21:39.339Z,80.78
2023-09-27T07:25:27.022Z,81.15
2023-09-27T07:29:17.207Z,81.69
2023-09-27T07:33:11.331Z,82.08
2023-09-27T07:37:09.296Z,82.36
2023-09-27T07:44:42.902Z,83.14
2023-09-27T07:47:10.277Z,82.97
2023-09-27T07:49:37.949Z,83.13
2023-09-27T07:52:06.157Z,83.24
2023-09-27T07:54:34.913Z,83.11
2023-09-27T07:57:02.731Z,82.94
2023-09-27T07:59:30.134Z,82.59
2023-09-27T08:01:57.506Z,82.48
2023-09-27T08:04:25.622Z,82.19
2023-09-27T08:06:53.126Z,81.72
2023-09-27T08:09:38.882Z,81.09
2023-09-27T08:12:08.677Z,80.87
2023-09-27T08:14:38.992Z,80.40
2023-09-27T08:17:06.480Z,80.18
2023-09-27T08:19:34.214Z,79.31
2023-09-27T08:22:01.471Z,79.25
2023-09-27T08:24:28.693Z,79.17
2023-09-27T08:26:56.285Z,78.40
2023-09-27T08:29:23.908Z,77.33
2023-09-27T08:31:51.720Z,77.00
2023-09-27T08:34:19.862Z,76.87
2023-09-27T08:36:48.281Z,75.39
2023-09-27T08:39:16.451Z,74.23
2023-09-27T08:41:44.492Z,72.61
2023-09-27T08:44:15.716Z,71.38
2023-09-27T08:46:43.211Z,69.44
2023-09-27T08:49:14.598Z,67.47
2023-09-27T08:51:43.834Z,65.97
2023-09-27T08:54:11.176Z,64.36
2023-09-27T08:56:38.853Z,62.48
2023-09-27T08:59:07.304Z,61.86
2023-09-27T09:01:35.193Z,59.51
2023-09-27T09:04:04.241Z,58.34
2023-09-27T09:06:32.488Z,57.27
2023-09-27T09:09:15.699Z,56.42
2023-09-27T09:11:50.610Z,54.55
2023-09-27T09:14:18.868Z,52.88
2023-09-27T09:16:54.600Z,52.44
2023-09-27T09:19:41.566Z,50.93
2023-09-27T09:22:16.019Z,50.75
2023-09-27T09:24:45.340Z,49.80
2023-09-27T09:27:17.368Z,48.79
2023-09-27T09:29:46.624Z,48.86
2023-09-27T09:32:17.332Z,47.58
2023-09-27T09:34:55.588Z,47.15
2023-09-27T09:37:31.351Z,47.00
2023-09-27T09:40:16.656Z,46.48
2023-09-27T09:42:44.739Z,44.97
2023-09-27T09:45:13.993Z,44.41
2023-09-27T09:47:46.346Z,44.42
2023-09-27T09:50:18.603Z,42.88
2023-09-27T09:53:01.188Z,43.48
2023-09-27T09:56:01.235Z,43.38
2023-09-27T09:58:49.414Z,43.77
2023-09-27T10:01:23.469Z,42.88
2023-09-27T10:03:53.269Z,42.88
2023-09-27T10:06:29.724Z,41.70
2023-09-27T10:09:07.135Z,42.82
2023-09-27T10:18:24.811Z,40.71
2023-09-27T10:21:14.651Z,41.68
2023-09-27T10:23:48.203Z,41.25
2023-09-27T10:26:20.270Z,40.17
2023-09-27T10:29:05.840Z,39.06
2023-09-27T10:31:40.609Z,39.90
2023-09-27T10:34:36.478Z,38.44
2023-09-27T10:37:18.103Z,38.09
2023-09-27T10:40:24.542Z,39.15
2023-09-27T10:42:51.929Z,39.58
2023-09-27T10:45:19.278Z,39.48
2023-09-27T10:47:51.564Z,38.44
2023-09-27T10:50:30.008Z,37.37
2023-09-27T10:52:58.893Z,37.80
2023-09-27T10:55:26.311Z,38.77
2023-09-27T10:57:53.821Z,37.67
2023-09-27T11:00:23.243Z,36.12
2023-09-27T11:02:50.804Z,37.28
2023-09-27T11:05:25.858Z,37.25
2023-09-27T11:07:53.531Z,37.10
2023-09-27T11:10:35.215Z,37.44
2023-09-27T11:13:13.764Z,37.67
2023-09-27T11:15:42.749Z,36.88
2023-09-27T11:18:12.042Z,35.43
2023-09-27T11:20:41.957Z,36.52
2023-09-27T11:23:09.816Z,36.43
2023-09-27T11:26:45.410Z,34.72
2023-09-27T11:30:39.189Z,34.61
2023-09-27T11:38:27.330Z,34.48
2023-09-27T11:42:15.087Z,34.17
2023-09-27T11:46:15.043Z,32.56
2023-09-27T11:50:28.182Z,34.83
2023-09-27T11:54:23.010Z,35.25
2023-09-27T12:06:03.014Z,33.67
2023-09-27T12:09:58.480Z,33.11
2023-09-27T12:13:48.980Z,34.00
2023-09-27T12:17:39.508Z,33.29
2023-09-27T12:25:29.302Z,34.68
2023-09-27T12:28:53.116Z,34.67
2023-09-27T12:32:36.358Z,35.37
2023-09-27T12:36:29.191Z,35.66
2023-09-27T12:40:20.264Z,35.70
2023-09-27T12:44:22.683Z,35.20
2023-09-27T12:48:21.391Z,35.16
2023-09-27T12:52:07.805Z,35.77
2023-09-27T13:00:03.482Z,36.67
2023-09-27T13:05:46.445Z,35.80
2023-09-27T13:09:35.946Z,35.98
2023-09-27T13:13:26.347Z,35.83
2023-09-27T13:27:05.115Z,37.30
2023-09-27T13:30:07.114Z,35.29
2023-09-27T13:33:29.933Z,35.42
2023-09-27T13:37:23.842Z,35.74
2023-09-27T13:41:21.928Z,35.88
2023-09-27T13:45:15.037Z,36.77
2023-09-27T13:56:24.062Z,36.13
2023-09-27T14:14:29.250Z,38.12
2023-09-27T14:23:59.511Z,39.11
2023-09-27T14:31:50.790Z,40.92
2023-09-27T18:09:51.610Z,64.66
2023-09-27T18:12:20.225Z,64.80
2023-09-27T18:14:50.210Z,65.08
2023-09-27T18:17:18.678Z,65.24
2023-09-27T18:19:47.180Z,65.46
2023-09-27T18:22:15.240Z,65.68
2023-09-27T18:24:43.430Z,65.81
2023-09-27T18:27:12.445Z,65.99
2023-09-27T18:29:40.937Z,66.26
2023-09-27T18:32:09.784Z,66.25
2023-09-27T18:34:39.778Z,66.61
2023-09-27T18:37:09.110Z,66.76
2023-09-27T18:39:37.358Z,66.76
2023-09-27T18:42:05.488Z,67.03
2023-09-27T18:44:33.899Z,67.39
2023-09-27T18:47:05.090Z,67.39
2023-09-27T18:49:34.007Z,67.65
2023-09-27T18:52:06.694Z,68.07
2023-09-27T18:54:36.151Z,68.20
2023-09-27T18:57:07.687Z,68.30
2023-09-27T18:59:38.809Z,68.83
2023-09-27T19:02:06.843Z,68.94
2023-09-27T19:04:35.049Z,69.34
2023-09-27T19:07:03.276Z,69.57
2023-09-27T19:09:32.226Z,69.73
2023-09-27T19:12:00.552Z,70.08
2023-09-27T19:14:29.120Z,70.63
2023-09-27T19:16:57.033Z,70.57
2023-09-27T19:19:25.077Z,70.90
2023-09-27T19:21:53.646Z,71.01
2023-09-27T19:24:22.164Z,71.18
2023-09-27T19:26:50.101Z,71.40
2023-09-27T19:29:18.623Z,71.68
2023-09-27T19:31:47.244Z,71.95
2023-09-27T19:34:16.170Z,72.27
2023-09-27T19:36:45.322Z,72.47
2023-09-27T19:39:15.487Z,72.48
2023-09-27T19:41:45.322Z,72.73
2023-09-27T19:44:13.868Z,73.24
2023-09-27T19:46:41.962Z,73.22
2023-09-27T19:49:13.827Z,73.37
2023-09-27T19:51:42.379Z,73.63
2023-09-27T19:54:10.260Z,73.48
2023-09-27T19:56:44.553Z,73.51
2023-09-27T19:59:15.725Z,73.64
2023-09-27T20:01:44.001Z,73.70
2023-09-27T20:04:11.723Z,73.66
2023-09-27T20:06:40.749Z,73.71
2023-09-27T20:09:12.576Z,73.88
2023-09-27T20:11:40.870Z,74.03
2023-09-27T20:14:08.316Z,73.99
2023-09-27T20:16:35.710Z,74.08
2023-09-27T20:19:07.208Z,74.31
2023-09-27T20:21:36.732Z,74.55
2023-09-27T20:24:04.449Z,74.52
2023-09-27T20:26:32.024Z,74.64
2023-09-27T20:28:59.523Z,74.50
2023-09-27T20:31:27.125Z,74.43
2023-09-27T20:33:54.881Z,74.45
2023-09-27T20:36:22.433Z,74.37
2023-09-27T20:38:49.991Z,74.50
2023-09-27T20:41:21.570Z,74.43
2023-09-27T20:43:49.472Z,74.48
2023-09-27T20:46:17.603Z,74.47
2023-09-27T20:48:45.085Z,74.54
2023-09-27T20:51:12.788Z,74.59
2023-09-27T20:53:40.571Z,74.78
2023-09-27T20:56:09.048Z,74.78
2023-09-27T20:58:37.515Z,74.90
2023-09-27T21:01:08.539Z,74.94
2023-09-27T21:03:36.987Z,75.07
2023-09-27T21:06:05.888Z,74.91
2023-09-27T21:08:33.697Z,75.03
2023-09-27T21:11:00.947Z,75.13
2023-09-27T21:13:28.226Z,75.14
2023-09-27T21:16:40.992Z,75.06
2023-09-27T21:19:08.389Z,75.13
2023-09-27T21:21:35.619Z,75.14
2023-09-27T21:24:02.885Z,75.12
2023-09-27T21:26:30.363Z,75.08
2023-09-27T21:28:57.561Z,75.09
2023-09-27T21:31:24.881Z,75.20
2023-09-27T21:33:52.547Z,75.23
2023-09-27T21:36:20.034Z,75.37
2023-09-27T21:38:47.356Z,75.39
2023-09-27T21:41:14.754Z,75.68
2023-09-27T21:43:42.063Z,75.66
2023-09-27T21:46:20.030Z,75.71
2023-09-27T21:48:49.409Z,75.83
2023-09-27T21:51:17.497Z,75.95
2023-09-27T21:53:45.302Z,76.08
2023-09-27T21:56:14.721Z,76.01
2023-09-27T21:58:43.036Z,76.32
2023-09-27T22:01:12.067Z,76.37
2023-09-27T22:03:40.434Z,76.39
2023-09-27T22:06:08.983Z,76.35
2023-09-27T22:08:36.317Z,76.38
2023-09-27T22:11:04.670Z,76.44
2023-09-27T22:13:33.161Z,76.40
2023-09-27T22:16:09.695Z,76.78
2023-09-27T22:18:43.473Z,76.88
2023-09-27T22:21:19.916Z,76.81
2023-09-27T22:23:48.230Z,76.94
2023-09-27T22:26:18.928Z,76.97
2023-09-27T22:28:49.417Z,76.97
2023-09-27T22:31:32.711Z,76.86
2023-09-27T22:34:12.126Z,76.99
2023-09-27T22:36:48.166Z,77.02
2023-09-27T22:39:20.750Z,76.98
2023-09-27T22:41:54.086Z,77.23
2023-09-27T22:44:22.683Z,77.17
2023-09-27T22:46:53.358Z,76.91
2023-09-27T22:49:22.923Z,76.94
2023-09-27T22:51:50.679Z,77.08
2023-09-27T22:54:20.498Z,77.03
2023-09-27T22:56:49.401Z,76.94
2023-09-27T22:59:17.220Z,76.97
2023-09-27T23:01:47.671Z,76.98
2023-09-27T23:04:17.881Z,76.77
2023-09-27T23:06:46.735Z,76.83
2023-09-27T23:09:26.235Z,76.63
2023-09-27T23:12:13.185Z,76.73
2023-09-27T23:14:58.919Z,76.52
2023-09-27T23:17:31.101Z,76.46
2023-09-27T23:19:58.487Z,76.35
2023-09-27T23:22:26.793Z,76.34
2023-09-27T23:25:12.441Z,76.36
2023-09-27T23:27:39.653Z,76.21
2023-09-27T23:30:14.310Z,76.22
2023-09-27T23:32:41.671Z,76.27
2023-09-27T23:35:11.185Z,76.26
2023-09-27T23:37:38.528Z,76.27
2023-09-27T23:40:15.244Z,76.36
2023-09-27T23:42:48.549Z,76.41
2023-09-27T23:45:16.196Z,76.48
2023-09-27T23:47:51.609Z,76.52
2023-09-27T23:50:19.343Z,76.34
2023-09-27T23:52:48.787Z,76.64
2023-09-27T23:55:19.155Z,76.45
2023-09-27T23:57:49.442Z,76.46
